Saturday, August 27, 2016, 5:50 AM EDT
Back to Local

KPTW, Pottstown Limerick Airport

Location: Royersford, PA, United States Lat: 40.233
Local Time: 5:50 AM EDT ( 9:50 GMT) Lon: -75.55
Time Zone: US/Eastern Elev: 291 ft

Show me the last for .
Show Decoded

2016-08-27 04:54 METAR KPTW 270854Z AUTO 00000KT 9SM CLR 18/17 A3015 RMK AO2 SLP205 T01830172
                 53008 =
2016-08-27 03:54 METAR KPTW 270754Z AUTO 00000KT 9SM CLR 19/18 A3013 RMK AO2 SLP200 T01890178 =
2016-08-27 02:54 METAR KPTW 270654Z AUTO 00000KT 9SM CLR 19/18 A3013 RMK AO2 SLP199 T01890178 =
2016-08-27 01:54 METAR KPTW 270554Z AUTO 00000KT 10SM CLR 20/18 A3013 RMK AO2 SLP198 T02000183
                 10278 20194 51007 =
2016-08-27 00:54 METAR KPTW 270454Z AUTO 00000KT 10SM CLR 21/18 A3013 RMK AO2 SLP197 T02110183
                 403220206 =
2016-08-26 23:54 METAR KPTW 270354Z AUTO 00000KT 10SM CLR 22/18 A3011 RMK AO2 SLP192 T02170183 =
2016-08-26 22:54 METAR KPTW 270254Z AUTO 00000KT 10SM CLR 23/19 A3011 RMK AO2 SLP190 T02330189
                 51016 =
2016-08-26 21:54 METAR KPTW 270154Z AUTO 35004KT 10SM CLR 25/19 A3010 RMK AO2 SLP187 T02500189 =
2016-08-26 20:54 METAR KPTW 270054Z AUTO 00000KT 10SM CLR 26/19 A3008 RMK AO2 SLP183 T02560189 =
2016-08-26 19:54 METAR KPTW 262354Z AUTO 00000KT 10SM CLR 27/19 A3006 RMK AO2 SLP174 T02720189
                 10322 20272 53005 =
2016-08-26 18:54 METAR KPTW 262254Z AUTO 31006KT 10SM CLR 29/19 A3005 RMK AO2 SLP172 T02940189 =
2016-08-26 17:54 METAR KPTW 262154Z AUTO 33009KT 10SM FEW055 31/18 A3005 RMK AO2 SLP169 T03110183
                 =
2016-08-26 16:54 METAR KPTW 262054Z AUTO 31006KT 10SM SCT060 32/19 A3004 RMK AO2 SLP168 T03170189
                 55000 =
2016-08-26 15:54 METAR KPTW 261954Z AUTO VRB04KT 10SM CLR 32/18 A3003 RMK AO2 SLP165 T03170183 =
2016-08-26 14:54 METAR KPTW 261854Z AUTO 33009KT 10SM CLR 32/18 A3004 RMK AO2 SLP167 T03170183 =
2016-08-26 13:54 METAR KPTW 261754Z AUTO 32009G15KT 10SM FEW050 32/19 A3005 RMK AO2 SLP168
                 T03170189 10317 20233 58002 =
2016-08-26 12:54 METAR KPTW 261654Z AUTO 30010G16KT 10SM CLR 31/19 A3004 RMK AO2 SLP167 T03110194
                 =
2016-08-26 11:54 METAR KPTW 261554Z AUTO 30009KT 240V330 10SM FEW039 30/21 A3005 RMK AO2 SLP171
                 T03000211 =
2016-08-26 10:54 METAR KPTW 261454Z AUTO 32012G19KT 10SM CLR 29/21 A3005 RMK AO2 SLP171 T02890211
                 58001 =
2016-08-26 09:54 METAR KPTW 261354Z AUTO 30008KT 9SM CLR 28/23 A3005 RMK AO2 SLP172 T02780228 =
2016-08-26 08:54 METAR KPTW 261254Z AUTO 29006KT 7SM CLR 26/23 A3005 RMK AO2 SLP172 T02610233 =
2016-08-26 07:54 METAR KPTW 261154Z AUTO 00000KT 5SM BR CLR 23/23 A3005 RMK AO2 SLP171 60003
                 70003 T02330228 10239 20228 53014 =
2016-08-26 06:54 METAR KPTW 261054Z AUTO 00000KT 3SM BR FEW090 23/23 A3004 RMK AO2 RAE04 SLP168
                 P0000 T02330228 =
2016-08-26 05:54 METAR KPTW 260954Z AUTO 23003KT 3SM RA BR FEW012 BKN075 OVC090 23/23 A3002 RMK
                 AO2 RAB36 SLP159 P0003 T02330228 =

Support USWX by starting your Amazon purchase here.